Time;durP1;ratioP1;P1;durP2;ratioP2;P2;SDS_P1;SDS_P2;PMS_P1;PMS_P2;Temp;Humidity;BMP_temperature;BMP_pressure;BME280_temperature;BME280_humidity;BME280_pressure;Samples;Min_cycle;Max_cycle;Signal;HPM_P1;HPM_P2
2022/02/02 00:02:17;;;;;;;;;;;;;;;2.51;100.00;99348.94;5135884;27;20026;-67
2022/02/02 00:04:47;;;;;;;;;;;;;;;2.67;100.00;99354.66;5154261;27;19922;-68
2022/02/02 00:07:30;;;;;;;;;;;;;;;2.25;100.00;99351.59;5154273;27;20389;-67
2022/02/02 00:10:05;;;;;;;;;;;;;;;2.37;100.00;99363.22;5154477;27;19922;-68
2022/02/02 00:12:47;;;;;;;;;;;;;;;2.44;100.00;99353.13;5153847;27;19971;-68
2022/02/02 00:17:50;;;;;;;;;;;;;;;2.57;100.00;99361.44;5154075;27;19947;-67
2022/02/02 00:22:46;;;;;;;;;;;;;;;2.34;100.00;99335.63;5153909;27;20006;-67
2022/02/02 00:25:24;;;;;;;;;;;;;;;2.08;100.00;99329.94;5153787;27;19950;-68
2022/02/02 00:27:55;;;;;;;;;;;;;;;2.23;100.00;99338.22;5153483;27;19915;-68
2022/02/02 00:30:23;;;;;;;;;;;;;;;1.78;100.00;99360.97;5135110;27;19923;-68
2022/02/02 00:35:18;;;;;;;;;;;;;;;1.78;100.00;99353.44;5153893;27;19915;-67
2022/02/02 00:37:43;;;;;;;;;;;;;;;1.77;100.00;99370.13;5134946;27;19958;-67
2022/02/02 00:40:09;;;;;;;;;;;;;;;1.95;100.00;99350.88;5153331;27;19977;-67
2022/02/02 00:42:35;;;;;;;;;;;;;;;1.91;100.00;99331.66;5153601;27;20361;-66
2022/02/02 00:45:00;;;;;;;;;;;;;;;1.77;100.00;99332.56;5153622;27;19919;-67
2022/02/02 00:47:27;;;;;;;;;;;;;;;2.23;100.00;99317.31;5153472;27;19919;-68
2022/02/02 00:49:53;;;;;;;;;;;;;;;1.96;100.00;99322.47;5153467;27;20445;-68
2022/02/02 00:52:19;;;;;;;;;;;;;;;1.98;100.00;99325.81;5134607;27;19919;-67
2022/02/02 00:54:44;;;;;;;;;;;;;;;2.18;100.00;99317.34;5153009;27;19915;-68
2022/02/02 00:57:10;;;;;;;;;;;;;;;1.92;100.00;99310.81;5152847;27;20052;-67
2022/02/02 00:59:35;;;;;;;;;;;;;;;1.90;100.00;99310.81;5153184;27;19931;-67
2022/02/02 01:02:00;;;;;;;;;;;;;;;2.28;100.00;99320.63;5212360;22;19925;-67
2022/02/02 01:04:26;;;;;;;;;;;;;;;2.03;100.00;99324.09;4365330;28;10000558;-66
2022/02/02 01:10:08;;;;;;;;;;;;;;;1.73;100.00;99310.03;5055423;28;20011;-66
2022/02/02 01:28:20;;;;;;;;;;;;;;;1.68;100.00;99269.16;5067394;28;19930;-66
2022/02/02 01:30:46;;;;;;;;;;;;;;;1.91;100.00;99269.03;5067961;28;19917;-66
2022/02/02 01:33:12;;;;;;;;;;;;;;;1.76;100.00;99270.78;5067570;28;19917;-67
2022/02/02 01:35:37;;;;;;;;;;;;;;;1.81;100.00;99273.25;5066345;28;19926;-67
2022/02/02 01:38:03;;;;;;;;;;;;;;;1.69;100.00;99264.13;5065600;28;19939;-66
2022/02/02 01:40:34;;;;;;;;;;;;;;;1.89;100.00;99260.69;5066168;28;20400;-67
2022/02/02 01:43:07;;;;;;;;;;;;;;;1.88;100.00;99264.06;5067210;28;20638;-67
2022/02/02 01:45:43;;;;;;;;;;;;;;;1.95;100.00;99259.00;5067762;28;19920;-67
2022/02/02 01:55:38;;;;;;;;;;;;;;;1.64;100.00;99275.81;5067392;28;19920;-66
2022/02/02 02:00:40;;;;;;;;;;;;;;;1.75;100.00;99261.59;5067428;28;19913;-66
2022/02/02 02:03:06;;;;;;;;;;;;;;;1.72;100.00;99249.06;5071161;28;19940;-65
2022/02/02 02:05:31;;;;;;;;;;;;;;;1.58;100.00;99255.00;5067473;28;19952;-66
2022/02/02 02:07:56;;;;;;;;;;;;;;;1.54;100.00;99245.84;5065804;28;19927;-67
2022/02/02 02:10:23;;;;;;;;;;;;;;;1.62;100.00;99234.94;5069153;28;20431;-66
2022/02/02 02:12:56;;;;;;;;;;;;;;;2.03;100.00;99239.75;5071388;28;19970;-66
2022/02/02 02:15:27;;;;;;;;;;;;;;;1.77;100.00;99226.53;5069533;28;20007;-66
2022/02/02 02:17:52;;;;;;;;;;;;;;;2.01;100.00;99221.38;5070043;28;19924;-67
2022/02/02 02:20:18;;;;;;;;;;;;;;;1.95;100.00;99220.56;5069545;28;19912;-67
2022/02/02 02:22:44;;;;;;;;;;;;;;;2.03;100.00;99217.19;5071200;28;20303;-66
2022/02/02 02:25:17;;;;;;;;;;;;;;;2.13;100.00;99215.44;5071165;28;19936;-66
2022/02/02 02:27:43;;;;;;;;;;;;;;;2.07;100.00;99218.00;5070156;28;19931;-66
2022/02/02 02:30:15;;;;;;;;;;;;;;;2.12;100.00;99212.09;5070850;28;19916;-66
2022/02/02 02:33:01;;;;;;;;;;;;;;;2.06;100.00;99214.66;5070942;28;19995;-66
2022/02/02 02:35:41;;;;;;;;;;;;;;;2.08;100.00;99205.44;5070487;28;19955;-66
2022/02/02 02:57:01;;;;;;;;;;;;;;;1.96;100.00;99208.03;5070647;28;19927;-67
2022/02/02 03:35:09;;;;;;;;;;;;;;;1.96;100.00;99167.94;5058069;28;19928;-65
2022/02/02 03:51:29;;;;;;;;;;;;;;;1.82;100.00;99162.22;5068940;28;19935;-65
2022/02/02 03:57:07;;;;;;;;;;;;;;;2.33;100.00;99139.25;5068720;28;20435;-65
2022/02/02 04:04:51;;;;;;;;;;;;;;;2.14;100.00;99139.44;5069273;28;20301;-65
2022/02/02 04:09:43;;;;;;;;;;;;;;;2.27;100.00;99151.84;5079857;28;19935;-63
2022/02/02 04:12:24;;;;;;;;;;;;;;;2.16;100.00;99166.13;5087134;28;19927;-63
2022/02/02 04:54:57;;;;;;;;;;;;;;;2.18;100.00;99192.00;5068193;28;20386;-65
2022/02/02 05:07:55;;;;;;;;;;;;;;;2.09;100.00;99194.59;5091370;28;20424;-63
2022/02/02 05:18:49;;;;;;;;;;;;;;;2.04;100.00;99197.97;5091362;28;19942;-64
2022/02/02 05:53:11;;;;;;;;;;;;;;;2.06;100.00;99217.16;5070440;28;19924;-63
2022/02/02 05:55:40;;;;;;;;;;;;;;;2.13;100.00;99212.94;5069196;28;19924;-63
2022/02/02 05:58:06;;;;;;;;;;;;;;;1.96;100.00;99222.25;5069018;28;19923;-63
2022/02/02 06:00:32;;;;;;;;;;;;;;;2.11;100.00;99223.00;5069311;28;20011;-63
2022/02/02 06:03:00;;;;;;;;;;;;;;;2.11;100.00;99224.66;5070429;28;19927;-63
2022/02/02 06:05:27;;;;;;;;;;;;;;;2.08;100.00;99225.50;5070816;28;20003;-63
2022/02/02 06:07:53;;;;;;;;;;;;;;;2.06;100.00;99222.16;5070676;28;19928;-63
2022/02/02 06:10:20;;;;;;;;;;;;;;;2.22;100.00;99220.41;5070605;28;19951;-63
2022/02/02 06:12:46;;;;;;;;;;;;;;;2.03;100.00;99221.34;5070245;28;19917;-63
2022/02/02 06:15:14;;;;;;;;;;;;;;;2.01;100.00;99228.91;5069967;28;19982;-63
2022/02/02 06:17:44;;;;;;;;;;;;;;;2.03;100.00;99219.69;5068880;28;20378;-63
2022/02/02 06:20:10;;;;;;;;;;;;;;;2.11;100.00;99225.50;5068718;28;19913;-64
2022/02/02 06:22:38;;;;;;;;;;;;;;;1.88;100.00;99219.81;5069974;28;19923;-64
2022/02/02 06:25:14;;;;;;;;;;;;;;;1.98;100.00;99218.06;5070100;28;19948;-62
2022/02/02 06:27:43;;;;;;;;;;;;;;;2.01;100.00;99216.38;5069775;28;19913;-63
2022/02/02 06:30:09;;;;;;;;;;;;;;;2.08;100.00;99210.47;5070531;28;19917;-63
2022/02/02 06:32:43;;;;;;;;;;;;;;;2.06;100.00;99217.16;5069084;28;19929;-63
2022/02/02 06:35:09;;;;;;;;;;;;;;;1.96;100.00;99207.22;5070879;28;19917;-63
2022/02/02 06:37:38;;;;;;;;;;;;;;;2.18;100.00;99207.06;5070755;28;19920;-63
2022/02/02 06:40:03;;;;;;;;;;;;;;;2.26;100.00;99207.84;5070114;28;19941;-64
2022/02/02 06:42:29;;;;;;;;;;;;;;;2.28;100.00;99205.31;5069091;28;20378;-63
2022/02/02 06:44:55;;;;;;;;;;;;;;;2.13;100.00;99211.28;5070122;28;20011;-64
2022/02/02 06:47:22;;;;;;;;;;;;;;;1.92;100.00;99206.41;5070258;28;20007;-63
2022/02/02 06:49:49;;;;;;;;;;;;;;;2.01;100.00;99208.84;5070456;28;19916;-63
2022/02/02 06:52:21;;;;;;;;;;;;;;;2.18;100.00;99203.72;5070066;28;19973;-63
2022/02/02 06:54:54;;;;;;;;;;;;;;;2.16;100.00;99215.44;5069919;28;19966;-63
2022/02/02 06:57:32;;;;;;;;;;;;;;;1.99;100.00;99209.69;5073700;28;19924;-63
2022/02/02 07:00:09;;;;;;;;;;;;;;;2.04;100.00;99205.50;5073793;28;19920;-63
2022/02/02 07:03:18;;;;;;;;;;;;;;;2.22;100.00;99210.38;5073865;28;20388;-63
2022/02/02 07:05:41;;;;;;;;;;;;;;;1.97;100.00;99211.38;5071514;28;20436;-63
2022/02/02 07:11:00;;;;;;;;;;;;;;;1.88;100.00;99211.44;5073611;28;19916;-64
2022/02/02 07:24:03;;;;;;;;;;;;;;;2.19;100.00;99216.25;5073480;28;19917;-63
2022/02/02 07:29:16;;;;;;;;;;;;;;;2.00;100.00;99224.72;5073514;28;19932;-63
2022/02/02 07:34:50;;;;;;;;;;;;;;;2.33;100.00;99228.69;5073297;28;19924;-64
2022/02/02 07:37:27;;;;;;;;;;;;;;;2.45;100.00;99231.94;5073096;28;19917;-64
2022/02/02 07:39:54;;;;;;;;;;;;;;;2.30;100.00;99237.03;5071627;28;19952;-64
2022/02/02 07:42:20;;;;;;;;;;;;;;;2.47;100.00;99237.78;5073020;28;19969;-64
2022/02/02 07:44:48;;;;;;;;;;;;;;;2.33;100.00;99244.56;5073024;28;19923;-64
2022/02/02 07:47:15;;;;;;;;;;;;;;;2.19;100.00;99245.50;5072885;28;20386;-64
2022/02/02 07:49:45;;;;;;;;;;;;;;;2.06;100.00;99249.72;5071514;28;20378;-63
2022/02/02 07:52:12;;;;;;;;;;;;;;;2.11;100.00;99248.03;5071640;28;19923;-63
2022/02/02 07:54:41;;;;;;;;;;;;;;;2.05;100.00;99244.75;5072774;28;19921;-63
2022/02/02 07:57:11;;;;;;;;;;;;;;;2.01;100.00;99246.44;5072744;28;19927;-62
2022/02/02 07:59:54;;;;;;;;;;;;;;;2.06;100.00;99246.41;5073118;28;19928;-63
2022/02/02 08:02:25;;;;;;;;;;;;;;;2.01;100.00;99251.44;5072810;28;19921;-64
2022/02/02 08:04:50;;;;;;;;;;;;;;;2.20;100.00;99260.50;5071062;28;19923;-64
2022/02/02 08:07:23;;;;;;;;;;;;;;;2.17;100.00;99259.69;5072470;28;19999;-64
2022/02/02 08:09:58;;;;;;;;;;;;;;;2.01;100.00;99253.13;5072063;28;19923;-64
2022/02/02 08:12:30;;;;;;;;;;;;;;;2.11;100.00;99260.59;5071119;28;20011;-63
2022/02/02 08:14:57;;;;;;;;;;;;;;;2.22;100.00;99256.31;5072613;28;19952;-63
2022/02/02 08:17:22;;;;;;;;;;;;;;;2.00;100.00;99257.28;5070758;28;19916;-64
2022/02/02 08:19:50;;;;;;;;;;;;;;;1.98;100.00;99265.69;5072198;28;20450;-63
2022/02/02 08:22:15;;;;;;;;;;;;;;;1.90;100.00;99264.88;5071772;28;19964;-64
2022/02/02 08:24:41;;;;;;;;;;;;;;;1.85;100.00;99269.91;5072530;28;19963;-63
2022/02/02 08:27:06;;;;;;;;;;;;;;;2.13;100.00;99268.91;5070835;28;19920;-64
2022/02/02 08:29:31;;;;;;;;;;;;;;;2.01;100.00;99270.66;5072163;28;20358;-64
2022/02/02 08:31:57;;;;;;;;;;;;;;;1.91;100.00;99274.88;5071895;28;19924;-64
2022/02/02 08:34:22;;;;;;;;;;;;;;;1.99;100.00;99278.19;5072011;28;19917;-64
2022/02/02 08:36:52;;;;;;;;;;;;;;;1.87;100.00;99274.91;5070371;28;19920;-64
2022/02/02 08:39:45;;;;;;;;;;;;;;;1.96;100.00;99268.16;5072275;28;20329;-64
2022/02/02 08:42:14;;;;;;;;;;;;;;;1.88;100.00;99274.06;5071772;28;20007;-65
2022/02/02 08:44:49;;;;;;;;;;;;;;;2.09;100.00;99264.78;5071895;28;19917;-64
2022/02/02 08:47:19;;;;;;;;;;;;;;;1.96;100.00;99275.69;5070240;28;19916;-65
2022/02/02 08:49:51;;;;;;;;;;;;;;;1.93;100.00;99283.22;5071854;28;20270;-65
2022/02/02 08:52:16;;;;;;;;;;;;;;;2.12;100.00;99276.47;5071583;28;20007;-65
2022/02/02 08:54:45;;;;;;;;;;;;;;;1.96;100.00;99274.88;5071706;28;20434;-66
2022/02/02 09:00:12;;;;;;;;;;;;;;;2.21;100.00;99274.72;5048182;28;19927;-65
2022/02/02 09:02:40;;;;;;;;;;;;;;;2.07;100.00;99276.47;5071414;28;19924;-65
2022/02/02 09:05:24;;;;;;;;;;;;;;;1.88;100.00;99281.59;5071112;28;19917;-64
2022/02/02 09:07:50;;;;;;;;;;;;;;;2.00;100.00;99284.84;5071452;28;19981;-65
2022/02/02 09:10:24;;;;;;;;;;;;;;;1.98;100.00;99279.00;5069648;28;19917;-64
2022/02/02 09:34:23;;;;;;;;;;;;;;;1.86;100.00;99271.59;5070996;28;20397;-65
2022/02/02 09:36:50;;;;;;;;;;;;;;;1.93;100.00;99265.69;5070970;28;19967;-66
2022/02/02 09:39:29;;;;;;;;;;;;;;;1.92;100.00;99268.22;5069571;28;19923;-64
2022/02/02 09:42:03;;;;;;;;;;;;;;;1.68;100.00;99264.16;5070827;28;20448;-64
2022/02/02 09:44:35;;;;;;;;;;;;;;;1.93;100.00;99273.22;5070701;28;20445;-64
2022/02/02 09:47:21;;;;;;;;;;;;;;;1.64;100.00;99268.31;5070876;28;19916;-64
2022/02/02 09:49:55;;;;;;;;;;;;;;;1.68;100.00;99267.47;5069396;28;19917;-64
2022/02/02 09:52:23;;;;;;;;;;;;;;;1.93;100.00;99264.84;5069747;28;19943;-65
2022/02/02 10:00:16;;;;;;;;;;;;;;;1.65;100.00;99251.63;5070633;28;19916;-64
2022/02/02 10:03:02;;;;;;;;;;;;;;;1.59;100.00;99249.97;5070673;28;19955;-64
2022/02/02 10:05:35;;;;;;;;;;;;;;;1.60;100.00;99251.66;5069555;28;19917;-64
2022/02/02 10:11:07;;;;;;;;;;;;;;;1.82;100.00;99237.38;5070434;28;20126;-65
2022/02/02 10:16:13;;;;;;;;;;;;;;;1.97;100.00;99229.75;5070474;28;19923;-64
2022/02/02 10:18:38;;;;;;;;;;;;;;;1.99;100.00;99223.06;5070367;28;20007;-64
2022/02/02 10:21:04;;;;;;;;;;;;;;;1.93;100.00;99220.59;5069329;28;20007;-65
2022/02/02 10:23:30;;;;;;;;;;;;;;;2.07;100.00;99221.34;5070615;28;20393;-64
2022/02/02 10:25:57;;;;;;;;;;;;;;;1.77;100.00;99216.50;5070490;28;19917;-64
2022/02/02 10:28:24;;;;;;;;;;;;;;;1.98;100.00;99213.88;5070353;28;20329;-66
2022/02/02 10:30:50;;;;;;;;;;;;;;;1.76;100.00;99213.16;5072096;28;19922;-64
2022/02/02 10:33:22;;;;;;;;;;;;;;;1.71;100.00;99214.88;5074054;28;19965;-64
2022/02/02 10:35:49;;;;;;;;;;;;;;;2.00;100.00;99209.69;5074225;28;19916;-64
2022/02/02 10:38:20;;;;;;;;;;;;;;;1.94;100.00;99203.88;5074171;28;19931;-64
2022/02/02 10:41:04;;;;;;;;;;;;;;;1.89;100.00;99208.91;5072763;28;20390;-64
2022/02/02 10:43:37;;;;;;;;;;;;;;;1.97;100.00;99203.84;5073953;28;19999;-64
2022/02/02 10:46:08;;;;;;;;;;;;;;;1.87;100.00;99203.09;5074069;28;19916;-65
2022/02/02 10:48:43;;;;;;;;;;;;;;;2.04;100.00;99200.50;5072687;28;20286;-64
2022/02/02 10:51:54;;;;;;;;;;;;;;;2.01;100.00;99203.84;5073983;28;20386;-64
2022/02/02 10:54:04;;;;;;;;;;;;;;;2.07;100.00;99196.28;5070435;28;20033;-64
2022/02/02 11:07:06;;;;;;;;;;;;;;;1.99;100.00;99197.16;5073331;28;19922;-64
2022/02/02 11:09:32;;;;;;;;;;;;;;;2.13;100.00;99202.91;5071855;28;19920;-64
2022/02/02 11:11:57;;;;;;;;;;;;;;;2.03;100.00;99207.16;5073503;28;19950;-64
2022/02/02 11:14:34;;;;;;;;;;;;;;;1.94;100.00;99203.88;5073641;28;19960;-64
2022/02/02 11:17:18;;;;;;;;;;;;;;;2.00;100.00;99204.66;5073472;28;19916;-64
2022/02/02 11:19:47;;;;;;;;;;;;;;;2.23;100.00;99199.50;5071726;28;19926;-64
2022/02/02 11:22:18;;;;;;;;;;;;;;;2.05;100.00;99199.63;5073469;28;19923;-64
2022/02/02 11:24:43;;;;;;;;;;;;;;;1.90;100.00;99202.25;5071995;28;20129;-64
2022/02/02 11:27:29;;;;;;;;;;;;;;;2.07;100.00;99200.44;5073065;28;19917;-64
2022/02/02 11:29:54;;;;;;;;;;;;;;;1.88;100.00;99203.94;5071707;28;19924;-64
2022/02/02 11:32:19;;;;;;;;;;;;;;;2.02;100.00;99202.19;5071518;28;19939;-64
2022/02/02 11:34:45;;;;;;;;;;;;;;;1.90;100.00;99199.75;5073629;28;19921;-64
2022/02/02 11:37:12;;;;;;;;;;;;;;;1.90;100.00;99192.22;5071848;28;19976;-64
2022/02/02 11:39:46;;;;;;;;;;;;;;;1.85;100.00;99188.91;5072852;28;20406;-64
2022/02/02 11:42:39;;;;;;;;;;;;;;;1.76;100.00;99189.81;5072683;28;19966;-64
2022/02/02 11:45:24;;;;;;;;;;;;;;;1.65;100.00;99187.34;5071667;28;20370;-63
2022/02/02 11:47:50;;;;;;;;;;;;;;;1.70;100.00;99185.63;5072554;28;20006;-64
2022/02/02 11:50:17;;;;;;;;;;;;;;;1.72;100.00;99183.97;5072944;28;20011;-65
2022/02/02 11:52:43;;;;;;;;;;;;;;;1.69;100.00;99186.50;5071709;28;19917;-66
2022/02/02 11:55:12;;;;;;;;;;;;;;;2.17;100.00;99187.84;5072530;28;19925;-65
2022/02/02 11:57:52;;;;;;;;;;;;;;;2.10;100.00;99191.22;5072956;28;19927;-66
2022/02/02 12:00:29;;;;;;;;;;;;;;;1.96;100.00;99194.69;5072799;28;19916;-65
2022/02/02 12:05:37;;;;;;;;;;;;;;;1.80;100.00;99190.63;5072580;28;19920;-65
2022/02/02 12:49:00;;;;;;;37.80;24.05;;;;;;;1.60;100.00;99106.44;5128695;28;20031;-64
2022/02/02 12:57:01;;;;;;;51.78;32.63;;;;;;;2.09;100.00;99199.59;5128554;28;20016;-64
2022/02/02 13:02:17;;;;;;;62.67;40.78;;;;;;;2.22;100.00;99201.19;5128488;28;20039;-64
2022/02/02 13:04:55;;;;;;;59.30;39.05;;;;;;;2.25;100.00;99180.28;5128178;28;20062;-64
2022/02/02 13:07:21;;;;;;;79.90;48.03;;;;;;;2.32;100.00;99180.22;5128219;28;20055;-64
2022/02/02 13:09:52;;;;;;;82.38;48.13;;;;;;;2.35;100.00;99205.28;5109875;28;20473;-64
2022/02/02 13:12:23;;;;;;;43.22;28.85;;;;;;;2.18;100.00;99193.72;5128219;28;20035;-64
2022/02/02 13:25:59;;;;;;;47.55;32.78;;;;;;;1.84;100.00;99119.63;5127979;28;20059;-64
2022/02/02 13:29:35;;;;;;;36.47;25.02;;;;;;;2.08;100.00;99182.09;5109390;28;20035;-64
2022/02/02 13:34:37;;;;;;;41.45;26.90;;;;;;;2.41;100.00;99191.84;5127692;28;20027;-64
2022/02/02 14:01:42;;;;;;;40.17;25.30;;;;;;;2.13;100.00;99125.22;5113461;28;20031;-63
2022/02/02 14:33:33;;;;;;;34.15;23.98;;;;;;;1.95;100.00;99146.25;5112754;28;20037;-65
2022/02/02 14:36:01;;;;;;;41.97;26.35;;;;;;;1.54;100.00;99130.66;5113285;28;20036;-65
2022/02/02 14:38:33;;;;;;;64.95;40.58;;;;;;;1.98;100.00;99180.47;5094548;28;20032;-63
2022/02/02 14:41:15;;;;;;;38.03;25.33;;;;;;;1.75;100.00;99163.09;5112678;28;20027;-65
2022/02/02 14:44:27;;;;;;;89.90;54.47;;;;;;;1.98;100.00;99172.97;5112966;28;20035;-65
2022/02/02 14:46:38;;;;;;;69.22;42.58;;;;;;;2.08;100.00;99162.84;5100227;28;20472;-65
2022/02/02 14:49:12;;;;;;;45.80;29.05;;;;;;;1.81;100.00;99100.41;5092329;28;20020;-65
2022/02/02 15:27:35;;;;;;;57.80;34.67;;;;;;;1.83;100.00;99097.91;5096162;28;20032;-66
2022/02/02 15:30:26;;;;;;;53.50;32.33;;;;;;;1.73;100.00;99097.97;5111902;28;20499;-67
2022/02/02 15:32:48;;;;;;;64.20;37.83;;;;;;;1.47;100.00;99066.44;5110560;28;20074;-67
2022/02/02 15:35:14;;;;;;;52.65;29.88;;;;;;;1.85;100.00;99162.19;5093517;28;20119;-67
2022/02/02 15:38:26;;;;;;;60.67;35.08;;;;;;;1.92;100.00;99138.75;5111689;28;20131;-67
2022/02/02 15:40:53;;;;;;;66.80;40.92;;;;;;;1.95;100.00;99160.44;5100330;28;20047;-67
2022/02/02 16:04:36;;;;;;;68.68;39.75;;;;;;;1.91;100.00;99169.66;5110642;28;20027;-67
2022/02/02 16:07:04;;;;;;;71.00;37.92;;;;;;;1.85;100.00;99139.63;5110576;28;20039;-68
2022/02/02 16:09:39;;;;;;;75.45;43.30;;;;;;;1.82;100.00;99137.16;5110863;28;20026;-67
2022/02/02 16:12:11;;;;;;;87.85;45.22;;;;;;;1.97;100.00;99176.28;5092637;28;20088;-67
2022/02/02 16:14:43;;;;;;;121.75;50.00;;;;;;;1.91;100.00;99182.19;5095959;28;20469;-67
2022/02/02 16:24:41;;;;;;;153.90;68.30;;;;;;;1.76;100.00;99168.06;5090512;28;20028;-66
2022/02/02 16:25:16;;;;;;;157.80;73.88;;;;;;;1.61;100.00;99149.81;5090633;28;20504;-65
2022/02/02 16:38:10;;;;;;;103.53;47.90;;;;;;;1.34;100.00;99175.81;5090479;28;20028;-66
2022/02/02 16:40:36;;;;;;;108.47;53.97;;;;;;;1.41;100.00;99167.44;5090152;28;20024;-67
2022/02/02 16:45:33;;;;;;;107.80;56.72;;;;;;;1.69;100.00;99213.19;5090199;28;20115;-68
2022/02/02 16:47:59;;;;;;;99.18;51.75;;;;;;;1.40;100.00;99162.44;5090589;28;20036;-68
2022/02/02 16:50:30;;;;;;;109.30;54.55;;;;;;;1.94;100.00;99223.94;5090406;28;20024;-68
2022/02/02 16:52:59;;;;;;;96.18;44.60;;;;;;;1.30;100.00;99175.84;5089974;28;20089;-67
2022/02/02 17:24:24;;;;;;;71.22;42.08;;;;;;;1.35;100.00;99189.16;5090101;28;20039;-68
2022/02/02 17:30:35;;;;;;;48.55;34.30;;;;;;;1.54;100.00;99244.19;5093008;28;20130;-68
2022/02/02 17:33:22;;;;;;;47.20;32.53;;;;;;;1.80;100.00;99285.81;5093177;28;20153;-67
2022/02/02 17:36:09;;;;;;;78.63;43.72;;;;;;;1.37;100.00;99220.00;5092428;28;20024;-67
2022/02/02 17:38:51;;;;;;;77.82;42.92;;;;;;;1.73;100.00;99265.78;5092515;28;20070;-66
2022/02/02 17:58:32;;;;;;;27.02;19.05;;;;;;;1.84;100.00;99288.28;5093185;28;20196;-66
2022/02/02 18:17:42;;;;;;;46.05;35.95;;;;;;;1.75;100.00;99259.09;5092833;28;20069;-67
2022/02/02 18:21:24;;;;;;;42.47;31.85;;;;;;;1.50;100.00;99201.63;5092734;28;20421;-67
2022/02/02 18:26:33;;;;;;;53.85;34.90;;;;;;;1.68;100.00;99262.44;4743068;28;9999997;-67
2022/02/02 18:37:55;;;;;;;50.17;34.90;;;;;;;2.10;100.00;99280.66;5109490;28;20031;-69
2022/02/02 18:58:10;;;;;;;53.83;37.65;;;;;;;2.25;100.00;99286.41;5129610;27;20169;-66
2022/02/02 19:00:49;;;;;;;68.63;47.30;;;;;;;2.20;100.00;99303.13;5129359;27;20035;-66
2022/02/02 20:06:36;;;;;;;;;;;;;;;1.99;100.00;99332.47;5108572;28;20039;-68
2022/02/02 20:11:35;;;;;;;60.63;36.97;;;;;;;1.86;100.00;99286.63;5107825;28;20039;-67
2022/02/02 20:14:00;;;;;;;60.92;37.67;;;;;;;1.96;100.00;99317.47;5107782;28;20055;-68
2022/02/02 20:16:26;;;;;;;59.92;38.13;;;;;;;1.92;100.00;99324.16;5107589;28;20569;-69
2022/02/02 20:18:55;;;;;;;59.78;35.53;;;;;;;1.89;100.00;99310.78;5107965;28;20031;-67
2022/02/02 20:21:23;;;;;;;65.93;40.88;;;;;;;1.56;100.00;99277.56;5089766;28;20046;-68
2022/02/02 20:23:50;;;;;;;70.43;40.40;;;;;;;1.75;100.00;99274.13;5107216;28;20165;-69
2022/02/02 20:26:18;;;;;;;67.93;41.03;;;;;;;1.69;100.00;99263.28;5088548;28;20023;-68
2022/02/02 20:28:45;;;;;;;66.95;39.35;;;;;;;2.10;100.00;99315.72;5107242;28;20123;-69
2022/02/02 20:31:11;;;;;;;78.30;46.63;;;;;;;1.52;100.00;99205.78;5089081;28;20036;-67
2022/02/02 20:33:37;;;;;;;80.75;48.15;;;;;;;1.60;100.00;99258.34;5107587;28;20073;-67
2022/02/02 20:36:03;;;;;;;69.65;42.80;;;;;;;2.02;100.00;99302.41;5107348;28;20444;-69
2022/02/02 20:38:29;;;;;;;70.07;42.80;;;;;;;1.53;100.00;99204.09;5106816;28;20063;-69
2022/02/02 20:40:54;;;;;;;66.95;41.03;;;;;;;1.64;100.00;99228.25;5107794;28;20055;-72
2022/02/02 20:46:11;;;;;;;81.40;45.10;;;;;;;1.64;100.00;99213.22;5107081;28;20486;-69
2022/02/02 21:10:15;;;;;;;65.45;39.90;;;;;;;2.03;100.00;99277.34;5072896;28;20036;-68
2022/02/02 21:15:28;;;;;;;60.25;35.47;;;;;;;2.04;100.00;99285.69;5093849;28;20032;-68
2022/02/02 21:17:56;;;;;;;64.00;37.25;;;;;;;2.00;100.00;99289.06;5094191;28;20021;-68
2022/02/02 21:20:29;;;;;;;71.65;39.33;;;;;;;2.12;100.00;99276.47;5093829;28;20039;-68
2022/02/02 21:23:01;;;;;;;69.28;41.92;;;;;;;2.14;100.00;99287.31;5092707;28;20030;-68
2022/02/02 21:27:58;;;;;;;73.93;43.33;;;;;;;2.12;100.00;99294.81;5093756;28;20410;-68
2022/02/02 21:30:25;;;;;;;72.00;41.38;;;;;;;1.66;100.00;99245.78;5109726;28;20028;-67
2022/02/02 21:32:51;;;;;;;81.28;47.90;;;;;;;1.69;100.00;99248.25;5114181;28;20047;-68
2022/02/02 21:35:17;;;;;;;77.03;42.80;;;;;;;1.77;100.00;99307.53;5112681;28;20023;-68
2022/02/02 21:37:46;;;;;;;70.78;39.30;;;;;;;1.70;100.00;99260.78;5114139;28;20039;-68
2022/02/02 21:40:24;;;;;;;63.05;35.15;;;;;;;1.93;100.00;99302.44;5113938;28;20125;-67
2022/02/02 21:42:54;;;;;;;67.90;39.22;;;;;;;2.11;100.00;99333.25;5114157;28;20128;-68
2022/02/02 21:45:19;;;;;;;77.82;42.95;;;;;;;1.60;100.00;99294.25;5113689;28;20402;-68
2022/02/02 21:47:45;;;;;;;109.55;56.80;;;;;;;1.62;100.00;99286.72;5095796;28;20042;-67
2022/02/02 21:50:15;;;;;;;68.00;35.35;;;;;;;1.11;100.00;99235.13;5113849;28;20036;-67
2022/02/02 21:52:41;;;;;;;50.47;28.73;;;;;;;1.39;100.00;99285.94;5113858;28;20036;-67
2022/02/02 21:55:08;;;;;;;51.45;28.58;;;;;;;1.55;100.00;99285.88;5113836;28;20028;-68
2022/02/02 21:57:33;;;;;;;63.00;34.30;;;;;;;1.53;100.00;99294.22;5114039;28;20111;-67
2022/02/02 21:59:59;;;;;;;55.13;32.45;;;;;;;1.83;100.00;99339.22;5095137;28;20650;-67
2022/02/02 22:02:25;;;;;;;58.65;32.28;;;;;;;1.62;100.00;99301.72;5095419;28;20035;-68
2022/02/02 22:04:50;;;;;;;69.03;37.75;;;;;;;1.28;100.00;99235.06;5094790;28;20032;-68
2022/02/02 22:07:16;;;;;;;52.15;30.10;;;;;;;1.40;100.00;99280.94;5094873;28;20149;-68
2022/02/02 22:09:44;;;;;;;64.03;36.33;;;;;;;1.60;100.00;99346.81;5095121;28;20058;-67
2022/02/02 22:12:09;;;;;;;65.32;38.53;;;;;;;1.48;100.00;99318.47;5113152;28;20080;-67
2022/02/02 22:14:35;;;;;;;66.97;38.55;;;;;;;1.64;100.00;99342.63;5107451;28;20028;-68
2022/02/02 22:17:03;;;;;;;56.28;33.15;;;;;;;1.87;100.00;99348.41;5105305;28;20039;-66
2022/02/02 22:19:29;;;;;;;68.57;38.53;;;;;;;1.72;100.00;99353.47;5113230;28;20023;-68
2022/02/02 22:21:55;;;;;;;61.30;35.38;;;;;;;1.55;100.00;99280.03;5094949;28;20035;-66
2022/02/02 22:24:21;;;;;;;68.13;37.38;;;;;;;1.59;100.00;99350.16;5094785;28;20032;-66
2022/02/02 22:26:47;;;;;;;64.82;37.45;;;;;;;1.66;100.00;99354.28;5112701;28;20046;-65
2022/02/02 22:29:12;;;;;;;69.40;39.45;;;;;;;1.52;100.00;99290.91;5113226;28;20040;-65
2022/02/02 22:31:38;;;;;;;65.32;39.53;;;;;;;2.08;100.00;99355.00;5094190;28;20083;-65
2022/02/02 22:34:03;;;;;;;68.90;39.40;;;;;;;1.68;100.00;99304.22;5112755;28;20102;-65
2022/02/02 22:36:29;;;;;;;69.30;42.58;;;;;;;1.86;100.00;99350.91;5094798;28;20085;-66
2022/02/02 22:38:54;;;;;;;66.95;40.35;;;;;;;1.56;100.00;99297.59;5094004;28;20065;-66
2022/02/02 22:41:20;;;;;;;63.08;37.60;;;;;;;1.96;100.00;99365.88;5094120;28;20035;-66
2022/02/02 22:43:48;;;;;;;55.63;33.67;;;;;;;1.96;100.00;99372.59;5112838;28;20538;-65
2022/02/02 22:46:15;;;;;;;55.10;34.00;;;;;;;1.64;100.00;99322.59;5112682;28;20023;-65
2022/02/02 22:48:42;;;;;;;56.58;33.13;;;;;;;1.80;100.00;99375.97;5094270;28;20039;-67
2022/02/02 22:51:09;;;;;;;58.30;35.28;;;;;;;1.98;100.00;99378.44;5112645;28;20063;-66
2022/02/02 22:53:35;;;;;;;62.35;38.33;;;;;;;1.59;100.00;99312.59;5094182;28;20562;-66
2022/02/02 22:56:00;;;;;;;64.35;37.97;;;;;;;1.44;100.00;99264.22;5112222;28;20074;-66
2022/02/02 22:58:26;;;;;;;69.03;41.50;;;;;;;1.60;100.00;99303.41;5112371;28;20118;-66
2022/02/02 23:00:51;;;;;;;71.43;44.47;;;;;;;1.67;100.00;99300.88;5112314;28;20023;-66
2022/02/02 23:03:20;;;;;;;86.15;50.45;;;;;;;1.55;100.00;99253.34;5094163;28;20027;-67
2022/02/02 23:05:51;;;;;;;69.65;43.75;;;;;;;1.92;100.00;99361.75;5112362;28;20023;-67
2022/02/02 23:08:19;;;;;;;67.60;41.60;;;;;;;1.55;100.00;99310.09;5094090;28;20465;-65
2022/02/02 23:10:45;;;;;;;58.45;36.28;;;;;;;1.72;100.00;99323.41;5111804;28;20132;-67
2022/02/02 23:13:12;;;;;;;67.80;40.70;;;;;;;1.37;100.00;99263.41;5112127;28;20035;-68
2022/02/02 23:15:50;;;;;;;60.25;36.72;;;;;;;1.41;100.00;99270.06;5110984;28;20031;-67
2022/02/02 23:18:21;;;;;;;63.22;39.63;;;;;;;2.01;100.00;99360.88;5112217;28;20031;-67
2022/02/02 23:20:55;;;;;;;;;;;;;;;1.68;100.00;99359.31;5094211;28;20035;-68
2022/02/02 23:23:23;;;;;;;58.15;35.83;;;;;;;1.35;100.00;99282.59;5093502;28;19916;-67